sensor_id;sensor_type;location;lat;lon;timestamp;P1;durP1;ratioP1;P2;durP2;ratioP2
1563;SDS011;775;51.958;7.976;2022-07-29T00:00:13;4.90;;;1.40;;
1563;SDS011;775;51.958;7.976;2022-07-29T00:02:40;5.13;;;1.13;;
1563;SDS011;775;51.958;7.976;2022-07-29T00:05:08;4.53;;;1.60;;
1563;SDS011;775;51.958;7.976;2022-07-29T00:07:38;5.83;;;1.63;;
1563;SDS011;775;51.958;7.976;2022-07-29T00:10:05;3.60;;;1.40;;
1563;SDS011;775;51.958;7.976;2022-07-29T00:12:33;5.27;;;1.63;;
1563;SDS011;775;51.958;7.976;2022-07-29T00:15:02;5.80;;;1.67;;
1563;SDS011;775;51.958;7.976;2022-07-29T00:17:29;5.10;;;1.50;;
1563;SDS011;775;51.958;7.976;2022-07-29T00:19:58;4.37;;;1.47;;
1563;SDS011;775;51.958;7.976;2022-07-29T00:22:26;4.30;;;1.17;;
1563;SDS011;775;51.958;7.976;2022-07-29T00:24:53;4.00;;;1.53;;
1563;SDS011;775;51.958;7.976;2022-07-29T00:27:20;3.87;;;1.33;;
1563;SDS011;775;51.958;7.976;2022-07-29T00:29:48;3.80;;;1.30;;
1563;SDS011;775;51.958;7.976;2022-07-29T00:32:16;4.63;;;1.33;;
1563;SDS011;775;51.958;7.976;2022-07-29T00:34:43;5.63;;;1.20;;
1563;SDS011;775;51.958;7.976;2022-07-29T00:37:28;5.10;;;2.13;;
1563;SDS011;775;51.958;7.976;2022-07-29T00:39:55;3.57;;;1.33;;
1563;SDS011;775;51.958;7.976;2022-07-29T00:42:23;6.00;;;1.50;;
1563;SDS011;775;51.958;7.976;2022-07-29T00:44:50;6.40;;;1.97;;
1563;SDS011;775;51.958;7.976;2022-07-29T00:47:18;4.00;;;1.30;;
1563;SDS011;775;51.958;7.976;2022-07-29T00:49:45;5.23;;;1.50;;
1563;SDS011;775;51.958;7.976;2022-07-29T00:52:13;7.73;;;1.63;;
1563;SDS011;775;51.958;7.976;2022-07-29T00:54:40;5.20;;;1.63;;
1563;SDS011;775;51.958;7.976;2022-07-29T00:57:07;9.70;;;3.40;;
1563;SDS011;775;51.958;7.976;2022-07-29T00:59:35;4.60;;;1.30;;
1563;SDS011;775;51.958;7.976;2022-07-29T01:02:02;8.17;;;1.50;;
1563;SDS011;775;51.958;7.976;2022-07-29T01:04:31;4.90;;;1.33;;
1563;SDS011;775;51.958;7.976;2022-07-29T01:06:59;3.60;;;1.20;;
1563;SDS011;775;51.958;7.976;2022-07-29T01:09:27;5.20;;;1.10;;
1563;SDS011;775;51.958;7.976;2022-07-29T01:11:54;4.93;;;2.03;;
1563;SDS011;775;51.958;7.976;2022-07-29T01:14:22;4.37;;;1.43;;
1563;SDS011;775;51.958;7.976;2022-07-29T01:16:51;4.40;;;1.50;;
1563;SDS011;775;51.958;7.976;2022-07-29T01:19:24;5.33;;;1.57;;
1563;SDS011;775;51.958;7.976;2022-07-29T01:21:57;6.70;;;1.50;;
1563;SDS011;775;51.958;7.976;2022-07-29T01:24:30;5.50;;;2.30;;
1563;SDS011;775;51.958;7.976;2022-07-29T01:27:03;5.33;;;1.60;;
1563;SDS011;775;51.958;7.976;2022-07-29T01:29:34;3.97;;;1.50;;
1563;SDS011;775;51.958;7.976;2022-07-29T01:32:03;3.63;;;1.30;;
1563;SDS011;775;51.958;7.976;2022-07-29T01:34:35;4.23;;;1.40;;
1563;SDS011;775;51.958;7.976;2022-07-29T01:37:06;3.53;;;1.27;;
1563;SDS011;775;51.958;7.976;2022-07-29T01:39:36;4.70;;;2.20;;
1563;SDS011;775;51.958;7.976;2022-07-29T01:42:06;4.10;;;1.50;;
1563;SDS011;775;51.958;7.976;2022-07-29T01:44:37;4.47;;;1.50;;
1563;SDS011;775;51.958;7.976;2022-07-29T01:47:07;3.60;;;1.10;;
1563;SDS011;775;51.958;7.976;2022-07-29T01:49:39;7.70;;;1.80;;
1563;SDS011;775;51.958;7.976;2022-07-29T01:52:09;3.77;;;1.30;;
1563;SDS011;775;51.958;7.976;2022-07-29T01:54:39;3.83;;;1.30;;
1563;SDS011;775;51.958;7.976;2022-07-29T01:57:09;4.23;;;1.30;;
1563;SDS011;775;51.958;7.976;2022-07-29T01:59:38;5.10;;;1.67;;
1563;SDS011;775;51.958;7.976;2022-07-29T02:02:06;4.47;;;1.63;;
1563;SDS011;775;51.958;7.976;2022-07-29T02:04:35;8.50;;;1.30;;
1563;SDS011;775;51.958;7.976;2022-07-29T02:07:05;4.20;;;1.50;;
1563;SDS011;775;51.958;7.976;2022-07-29T02:09:33;5.30;;;1.47;;
1563;SDS011;775;51.958;7.976;2022-07-29T02:12:02;3.83;;;1.40;;
1563;SDS011;775;51.958;7.976;2022-07-29T02:14:30;5.63;;;1.40;;
1563;SDS011;775;51.958;7.976;2022-07-29T02:17:01;5.53;;;1.77;;
1563;SDS011;775;51.958;7.976;2022-07-29T02:19:29;9.33;;;1.60;;
1563;SDS011;775;51.958;7.976;2022-07-29T02:21:58;4.33;;;1.50;;
1563;SDS011;775;51.958;7.976;2022-07-29T02:24:26;4.53;;;1.20;;
1563;SDS011;775;51.958;7.976;2022-07-29T02:26:55;4.30;;;1.40;;
1563;SDS011;775;51.958;7.976;2022-07-29T02:29:23;4.10;;;1.50;;
1563;SDS011;775;51.958;7.976;2022-07-29T02:31:51;6.90;;;1.37;;
1563;SDS011;775;51.958;7.976;2022-07-29T02:34:20;3.80;;;1.40;;
1563;SDS011;775;51.958;7.976;2022-07-29T02:36:48;5.10;;;1.70;;
1563;SDS011;775;51.958;7.976;2022-07-29T02:39:16;4.53;;;1.27;;
1563;SDS011;775;51.958;7.976;2022-07-29T02:41:44;6.53;;;1.50;;
1563;SDS011;775;51.958;7.976;2022-07-29T02:44:16;5.30;;;1.40;;
1563;SDS011;775;51.958;7.976;2022-07-29T02:46:45;4.47;;;1.57;;
1563;SDS011;775;51.958;7.976;2022-07-29T02:49:15;3.60;;;1.30;;
1563;SDS011;775;51.958;7.976;2022-07-29T02:51:44;4.70;;;1.40;;
1563;SDS011;775;51.958;7.976;2022-07-29T02:54:19;4.27;;;1.60;;
1563;SDS011;775;51.958;7.976;2022-07-29T02:56:46;4.67;;;1.43;;
1563;SDS011;775;51.958;7.976;2022-07-29T02:59:18;5.30;;;1.60;;
1563;SDS011;775;51.958;7.976;2022-07-29T03:01:48;5.73;;;2.33;;
1563;SDS011;775;51.958;7.976;2022-07-29T03:04:16;4.43;;;1.37;;
1563;SDS011;775;51.958;7.976;2022-07-29T03:06:45;5.37;;;1.80;;
1563;SDS011;775;51.958;7.976;2022-07-29T03:09:13;4.83;;;1.73;;
1563;SDS011;775;51.958;7.976;2022-07-29T03:11:41;4.10;;;1.40;;
1563;SDS011;775;51.958;7.976;2022-07-29T03:14:09;4.70;;;1.60;;
1563;SDS011;775;51.958;7.976;2022-07-29T03:16:36;4.53;;;1.57;;
1563;SDS011;775;51.958;7.976;2022-07-29T03:19:03;4.70;;;1.60;;
1563;SDS011;775;51.958;7.976;2022-07-29T03:21:31;5.07;;;1.70;;
1563;SDS011;775;51.958;7.976;2022-07-29T03:23:59;4.67;;;1.50;;
1563;SDS011;775;51.958;7.976;2022-07-29T03:26:26;4.30;;;1.30;;
1563;SDS011;775;51.958;7.976;2022-07-29T03:28:54;5.50;;;1.90;;
1563;SDS011;775;51.958;7.976;2022-07-29T03:31:21;6.70;;;1.40;;
1563;SDS011;775;51.958;7.976;2022-07-29T03:33:48;4.07;;;1.53;;
1563;SDS011;775;51.958;7.976;2022-07-29T03:36:16;6.23;;;1.40;;
1563;SDS011;775;51.958;7.976;2022-07-29T03:38:43;3.83;;;1.50;;
1563;SDS011;775;51.958;7.976;2022-07-29T03:41:12;5.73;;;1.40;;
1563;SDS011;775;51.958;7.976;2022-07-29T03:43:40;6.27;;;1.50;;
1563;SDS011;775;51.958;7.976;2022-07-29T03:46:09;5.57;;;1.50;;
1563;SDS011;775;51.958;7.976;2022-07-29T03:48:37;5.10;;;1.50;;
1563;SDS011;775;51.958;7.976;2022-07-29T03:51:06;4.57;;;1.40;;
1563;SDS011;775;51.958;7.976;2022-07-29T03:53:33;4.90;;;1.60;;
1563;SDS011;775;51.958;7.976;2022-07-29T03:56:01;5.67;;;1.47;;
1563;SDS011;775;51.958;7.976;2022-07-29T03:58:30;6.23;;;1.57;;
1563;SDS011;775;51.958;7.976;2022-07-29T04:00:58;3.77;;;1.37;;
1563;SDS011;775;51.958;7.976;2022-07-29T04:03:25;9.50;;;1.93;;
1563;SDS011;775;51.958;7.976;2022-07-29T04:06:02;5.07;;;1.70;;
1563;SDS011;775;51.958;7.976;2022-07-29T04:08:30;4.50;;;1.97;;
1563;SDS011;775;51.958;7.976;2022-07-29T04:10:58;6.37;;;1.73;;
1563;SDS011;775;51.958;7.976;2022-07-29T04:13:25;6.47;;;1.73;;
1563;SDS011;775;51.958;7.976;2022-07-29T04:15:54;6.07;;;1.77;;
1563;SDS011;775;51.958;7.976;2022-07-29T04:18:21;4.23;;;1.30;;
1563;SDS011;775;51.958;7.976;2022-07-29T04:20:48;5.43;;;1.80;;
1563;SDS011;775;51.958;7.976;2022-07-29T04:23:15;4.87;;;1.60;;
1563;SDS011;775;51.958;7.976;2022-07-29T04:25:42;4.10;;;1.33;;
1563;SDS011;775;51.958;7.976;2022-07-29T04:28:10;7.67;;;2.03;;
1563;SDS011;775;51.958;7.976;2022-07-29T04:30:37;5.47;;;1.50;;
1563;SDS011;775;51.958;7.976;2022-07-29T04:33:06;4.80;;;1.30;;
1563;SDS011;775;51.958;7.976;2022-07-29T04:35:34;6.40;;;1.60;;
1563;SDS011;775;51.958;7.976;2022-07-29T04:38:02;3.70;;;1.10;;
1563;SDS011;775;51.958;7.976;2022-07-29T04:40:29;7.60;;;1.40;;
1563;SDS011;775;51.958;7.976;2022-07-29T04:42:58;7.43;;;2.37;;
1563;SDS011;775;51.958;7.976;2022-07-29T04:45:25;5.30;;;1.60;;
1563;SDS011;775;51.958;7.976;2022-07-29T04:47:52;7.90;;;2.07;;
1563;SDS011;775;51.958;7.976;2022-07-29T04:50:21;4.47;;;1.63;;
1563;SDS011;775;51.958;7.976;2022-07-29T04:52:48;5.70;;;3.30;;
1563;SDS011;775;51.958;7.976;2022-07-29T04:55:15;5.33;;;1.60;;
1563;SDS011;775;51.958;7.976;2022-07-29T04:57:43;5.97;;;1.70;;
1563;SDS011;775;51.958;7.976;2022-07-29T05:00:10;4.67;;;1.77;;
1563;SDS011;775;51.958;7.976;2022-07-29T05:02:37;7.50;;;1.73;;
1563;SDS011;775;51.958;7.976;2022-07-29T05:05:05;5.87;;;2.73;;
1563;SDS011;775;51.958;7.976;2022-07-29T05:07:33;4.40;;;1.60;;
1563;SDS011;775;51.958;7.976;2022-07-29T05:10:01;4.43;;;1.37;;
1563;SDS011;775;51.958;7.976;2022-07-29T05:12:28;4.40;;;1.70;;
1563;SDS011;775;51.958;7.976;2022-07-29T05:14:55;5.47;;;1.60;;
1563;SDS011;775;51.958;7.976;2022-07-29T05:17:22;4.20;;;1.37;;
1563;SDS011;775;51.958;7.976;2022-07-29T05:19:49;8.40;;;2.10;;
1563;SDS011;775;51.958;7.976;2022-07-29T05:22:17;5.60;;;1.50;;
1563;SDS011;775;51.958;7.976;2022-07-29T05:24:46;5.10;;;1.50;;
1563;SDS011;775;51.958;7.976;2022-07-29T05:27:13;5.77;;;1.57;;
1563;SDS011;775;51.958;7.976;2022-07-29T05:29:40;7.03;;;1.80;;
1563;SDS011;775;51.958;7.976;2022-07-29T05:32:08;5.43;;;1.50;;
1563;SDS011;775;51.958;7.976;2022-07-29T05:34:35;4.10;;;1.50;;
1563;SDS011;775;51.958;7.976;2022-07-29T05:37:02;4.30;;;1.50;;
1563;SDS011;775;51.958;7.976;2022-07-29T05:39:29;6.10;;;2.03;;
1563;SDS011;775;51.958;7.976;2022-07-29T05:41:58;5.23;;;1.70;;
1563;SDS011;775;51.958;7.976;2022-07-29T05:44:25;6.07;;;1.50;;
1563;SDS011;775;51.958;7.976;2022-07-29T05:46:52;6.03;;;2.20;;
1563;SDS011;775;51.958;7.976;2022-07-29T05:49:19;3.70;;;1.10;;
1563;SDS011;775;51.958;7.976;2022-07-29T05:51:46;4.40;;;2.10;;
1563;SDS011;775;51.958;7.976;2022-07-29T05:54:14;3.53;;;1.37;;
1563;SDS011;775;51.958;7.976;2022-07-29T05:56:41;5.97;;;2.10;;
1563;SDS011;775;51.958;7.976;2022-07-29T05:59:10;6.37;;;3.60;;
1563;SDS011;775;51.958;7.976;2022-07-29T06:01:37;4.50;;;1.40;;
1563;SDS011;775;51.958;7.976;2022-07-29T06:04:05;4.93;;;1.63;;
1563;SDS011;775;51.958;7.976;2022-07-29T06:06:32;5.97;;;1.60;;
1563;SDS011;775;51.958;7.976;2022-07-29T06:09:00;4.47;;;1.67;;
1563;SDS011;775;51.958;7.976;2022-07-29T06:11:27;4.83;;;1.50;;
1563;SDS011;775;51.958;7.976;2022-07-29T06:13:55;8.13;;;1.67;;
1563;SDS011;775;51.958;7.976;2022-07-29T06:16:23;5.40;;;1.60;;
1563;SDS011;775;51.958;7.976;2022-07-29T06:18:50;6.23;;;1.97;;
1563;SDS011;775;51.958;7.976;2022-07-29T06:21:18;4.57;;;1.73;;
1563;SDS011;775;51.958;7.976;2022-07-29T06:23:45;4.43;;;1.60;;
1563;SDS011;775;51.958;7.976;2022-07-29T06:26:12;5.20;;;1.70;;
1563;SDS011;775;51.958;7.976;2022-07-29T06:28:39;6.83;;;1.30;;
1563;SDS011;775;51.958;7.976;2022-07-29T06:31:06;4.00;;;1.50;;
1563;SDS011;775;51.958;7.976;2022-07-29T06:33:35;4.27;;;1.70;;
1563;SDS011;775;51.958;7.976;2022-07-29T06:36:03;4.30;;;1.33;;
1563;SDS011;775;51.958;7.976;2022-07-29T06:38:30;4.63;;;1.57;;
1563;SDS011;775;51.958;7.976;2022-07-29T06:40:57;5.30;;;1.57;;
1563;SDS011;775;51.958;7.976;2022-07-29T06:43:29;5.37;;;1.77;;
1563;SDS011;775;51.958;7.976;2022-07-29T06:45:59;5.10;;;1.90;;
1563;SDS011;775;51.958;7.976;2022-07-29T06:48:26;3.50;;;1.13;;
1563;SDS011;775;51.958;7.976;2022-07-29T06:50:55;5.23;;;1.60;;
1563;SDS011;775;51.958;7.976;2022-07-29T06:53:23;5.00;;;1.63;;
1563;SDS011;775;51.958;7.976;2022-07-29T06:55:50;4.50;;;1.60;;
1563;SDS011;775;51.958;7.976;2022-07-29T06:58:17;4.00;;;1.30;;
1563;SDS011;775;51.958;7.976;2022-07-29T07:00:45;4.53;;;1.50;;
1563;SDS011;775;51.958;7.976;2022-07-29T07:03:13;4.53;;;1.30;;
1563;SDS011;775;51.958;7.976;2022-07-29T07:05:40;5.47;;;1.50;;
1563;SDS011;775;51.958;7.976;2022-07-29T07:08:08;6.60;;;2.10;;
1563;SDS011;775;51.958;7.976;2022-07-29T07:10:35;5.17;;;2.10;;
1563;SDS011;775;51.958;7.976;2022-07-29T07:13:03;4.47;;;1.80;;
1563;SDS011;775;51.958;7.976;2022-07-29T07:15:31;6.33;;;1.63;;
1563;SDS011;775;51.958;7.976;2022-07-29T07:17:58;6.83;;;1.60;;
1563;SDS011;775;51.958;7.976;2022-07-29T07:20:25;5.67;;;1.33;;
1563;SDS011;775;51.958;7.976;2022-07-29T07:22:52;4.47;;;1.43;;
1563;SDS011;775;51.958;7.976;2022-07-29T07:25:21;3.50;;;1.27;;
1563;SDS011;775;51.958;7.976;2022-07-29T07:27:48;5.10;;;1.40;;
1563;SDS011;775;51.958;7.976;2022-07-29T07:30:15;4.43;;;1.10;;
1563;SDS011;775;51.958;7.976;2022-07-29T07:32:42;5.57;;;1.50;;
1563;SDS011;775;51.958;7.976;2022-07-29T07:35:10;8.43;;;1.80;;
1563;SDS011;775;51.958;7.976;2022-07-29T07:37:37;4.70;;;1.60;;
1563;SDS011;775;51.958;7.976;2022-07-29T07:40:05;5.00;;;1.50;;
1563;SDS011;775;51.958;7.976;2022-07-29T07:42:34;6.63;;;1.67;;
1563;SDS011;775;51.958;7.976;2022-07-29T07:45:02;4.60;;;1.50;;
1563;SDS011;775;51.958;7.976;2022-07-29T07:47:29;5.67;;;1.70;;
1563;SDS011;775;51.958;7.976;2022-07-29T07:49:57;4.03;;;1.50;;
1563;SDS011;775;51.958;7.976;2022-07-29T07:52:25;5.00;;;1.77;;
1563;SDS011;775;51.958;7.976;2022-07-29T07:54:52;3.80;;;1.50;;
1563;SDS011;775;51.958;7.976;2022-07-29T07:57:19;4.67;;;1.30;;
1563;SDS011;775;51.958;7.976;2022-07-29T07:59:48;4.60;;;1.60;;
1563;SDS011;775;51.958;7.976;2022-07-29T08:02:15;5.20;;;1.60;;
1563;SDS011;775;51.958;7.976;2022-07-29T08:04:42;5.57;;;1.50;;
1563;SDS011;775;51.958;7.976;2022-07-29T08:07:09;5.53;;;1.70;;
1563;SDS011;775;51.958;7.976;2022-07-29T08:09:36;5.07;;;1.70;;
1563;SDS011;775;51.958;7.976;2022-07-29T08:12:04;4.17;;;1.20;;
1563;SDS011;775;51.958;7.976;2022-07-29T08:14:31;5.77;;;1.60;;
1563;SDS011;775;51.958;7.976;2022-07-29T08:17:00;3.90;;;1.40;;
1563;SDS011;775;51.958;7.976;2022-07-29T08:19:27;4.77;;;1.23;;
1563;SDS011;775;51.958;7.976;2022-07-29T08:21:54;5.80;;;1.57;;
1563;SDS011;775;51.958;7.976;2022-07-29T08:24:22;5.50;;;1.50;;
1563;SDS011;775;51.958;7.976;2022-07-29T08:27:07;6.10;;;2.03;;
1563;SDS011;775;51.958;7.976;2022-07-29T08:29:34;4.87;;;1.70;;
1563;SDS011;775;51.958;7.976;2022-07-29T08:32:03;4.43;;;1.50;;
1563;SDS011;775;51.958;7.976;2022-07-29T08:34:30;5.33;;;2.10;;
1563;SDS011;775;51.958;7.976;2022-07-29T08:36:57;5.50;;;1.93;;
1563;SDS011;775;51.958;7.976;2022-07-29T08:39:24;5.90;;;1.50;;
1563;SDS011;775;51.958;7.976;2022-07-29T08:41:51;3.67;;;1.10;;
1563;SDS011;775;51.958;7.976;2022-07-29T08:44:20;4.43;;;1.60;;
1563;SDS011;775;51.958;7.976;2022-07-29T08:46:47;5.37;;;1.70;;
1563;SDS011;775;51.958;7.976;2022-07-29T08:49:16;3.80;;;1.30;;
1563;SDS011;775;51.958;7.976;2022-07-29T08:51:43;6.67;;;3.67;;
1563;SDS011;775;51.958;7.976;2022-07-29T08:54:11;7.13;;;1.70;;
1563;SDS011;775;51.958;7.976;2022-07-29T08:56:43;4.63;;;1.70;;
1563;SDS011;775;51.958;7.976;2022-07-29T08:59:10;5.63;;;1.90;;
1563;SDS011;775;51.958;7.976;2022-07-29T09:01:38;4.97;;;1.83;;
1563;SDS011;775;51.958;7.976;2022-07-29T09:04:09;5.20;;;1.83;;
1563;SDS011;775;51.958;7.976;2022-07-29T09:06:39;4.67;;;1.67;;
1563;SDS011;775;51.958;7.976;2022-07-29T09:09:09;5.23;;;1.77;;
1563;SDS011;775;51.958;7.976;2022-07-29T09:11:37;5.40;;;1.93;;
1563;SDS011;775;51.958;7.976;2022-07-29T09:14:04;5.87;;;1.60;;
1563;SDS011;775;51.958;7.976;2022-07-29T09:16:48;4.80;;;1.70;;
1563;SDS011;775;51.958;7.976;2022-07-29T09:19:25;6.07;;;1.43;;
1563;SDS011;775;51.958;7.976;2022-07-29T09:21:55;4.37;;;1.50;;
1563;SDS011;775;51.958;7.976;2022-07-29T09:24:30;8.80;;;1.80;;
1563;SDS011;775;51.958;7.976;2022-07-29T09:27:06;5.37;;;1.80;;
1563;SDS011;775;51.958;7.976;2022-07-29T09:29:35;5.97;;;2.50;;
1563;SDS011;775;51.958;7.976;2022-07-29T09:32:02;4.10;;;1.37;;
1563;SDS011;775;51.958;7.976;2022-07-29T09:34:32;4.70;;;2.10;;
1563;SDS011;775;51.958;7.976;2022-07-29T09:37:01;6.20;;;2.13;;
1563;SDS011;775;51.958;7.976;2022-07-29T09:39:30;6.37;;;1.80;;
1563;SDS011;775;51.958;7.976;2022-07-29T09:41:58;4.47;;;1.43;;
1563;SDS011;775;51.958;7.976;2022-07-29T09:44:25;5.90;;;1.70;;
1563;SDS011;775;51.958;7.976;2022-07-29T09:46:56;5.40;;;1.97;;
1563;SDS011;775;51.958;7.976;2022-07-29T09:49:24;5.03;;;2.00;;
1563;SDS011;775;51.958;7.976;2022-07-29T09:52:04;3.90;;;1.60;;
1563;SDS011;775;51.958;7.976;2022-07-29T09:54:32;5.97;;;2.10;;
1563;SDS011;775;51.958;7.976;2022-07-29T09:57:02;4.97;;;1.73;;
1563;SDS011;775;51.958;7.976;2022-07-29T09:59:30;5.47;;;1.87;;
1563;SDS011;775;51.958;7.976;2022-07-29T10:01:57;6.10;;;2.13;;
1563;SDS011;775;51.958;7.976;2022-07-29T10:04:35;7.93;;;2.33;;
1563;SDS011;775;51.958;7.976;2022-07-29T10:07:04;6.60;;;2.33;;
1563;SDS011;775;51.958;7.976;2022-07-29T10:09:31;5.33;;;1.87;;
1563;SDS011;775;51.958;7.976;2022-07-29T10:14:44;5.70;;;2.07;;
1563;SDS011;775;51.958;7.976;2022-07-29T10:17:11;5.20;;;1.83;;
1563;SDS011;775;51.958;7.976;2022-07-29T10:19:38;6.00;;;2.13;;
1563;SDS011;775;51.958;7.976;2022-07-29T10:22:09;4.93;;;1.90;;
1563;SDS011;775;51.958;7.976;2022-07-29T10:24:37;6.33;;;3.23;;
1563;SDS011;775;51.958;7.976;2022-07-29T10:27:05;4.60;;;1.67;;
1563;SDS011;775;51.958;7.976;2022-07-29T10:29:33;3.97;;;1.60;;
1563;SDS011;775;51.958;7.976;2022-07-29T10:32:09;4.67;;;1.97;;
1563;SDS011;775;51.958;7.976;2022-07-29T10:34:44;4.87;;;1.57;;
1563;SDS011;775;51.958;7.976;2022-07-29T10:37:18;4.70;;;1.90;;
1563;SDS011;775;51.958;7.976;2022-07-29T10:39:50;5.30;;;1.70;;
1563;SDS011;775;51.958;7.976;2022-07-29T10:42:21;6.33;;;1.73;;
1563;SDS011;775;51.958;7.976;2022-07-29T10:44:49;5.30;;;1.83;;
1563;SDS011;775;51.958;7.976;2022-07-29T10:47:20;5.50;;;2.50;;
1563;SDS011;775;51.958;7.976;2022-07-29T10:55:33;5.03;;;1.90;;
1563;SDS011;775;51.958;7.976;2022-07-29T10:58:11;3.83;;;1.47;;
1563;SDS011;775;51.958;7.976;2022-07-29T11:00:39;4.40;;;1.57;;
1563;SDS011;775;51.958;7.976;2022-07-29T11:03:06;7.40;;;2.17;;
1563;SDS011;775;51.958;7.976;2022-07-29T11:08:22;4.33;;;1.60;;
1563;SDS011;775;51.958;7.976;2022-07-29T11:10:52;4.70;;;1.63;;
1563;SDS011;775;51.958;7.976;2022-07-29T11:16:15;5.90;;;1.77;;
1563;SDS011;775;51.958;7.976;2022-07-29T11:21:37;4.93;;;1.70;;
1563;SDS011;775;51.958;7.976;2022-07-29T11:24:11;8.70;;;2.10;;
1563;SDS011;775;51.958;7.976;2022-07-29T11:26:40;3.90;;;1.53;;
1563;SDS011;775;51.958;7.976;2022-07-29T11:29:14;6.47;;;2.03;;
1563;SDS011;775;51.958;7.976;2022-07-29T11:31:43;5.73;;;2.00;;
1563;SDS011;775;51.958;7.976;2022-07-29T11:34:18;4.43;;;1.60;;
1563;SDS011;775;51.958;7.976;2022-07-29T11:39:31;5.60;;;1.70;;
1563;SDS011;775;51.958;7.976;2022-07-29T11:44:55;5.50;;;2.00;;
1563;SDS011;775;51.958;7.976;2022-07-29T11:47:22;5.60;;;2.03;;
1563;SDS011;775;51.958;7.976;2022-07-29T11:49:50;5.37;;;1.90;;
1563;SDS011;775;51.958;7.976;2022-07-29T11:52:17;4.60;;;1.60;;
1563;SDS011;775;51.958;7.976;2022-07-29T11:54:46;4.40;;;1.83;;
1563;SDS011;775;51.958;7.976;2022-07-29T11:57:14;4.10;;;1.50;;
1563;SDS011;775;51.958;7.976;2022-07-29T11:59:43;5.73;;;2.00;;
1563;SDS011;775;51.958;7.976;2022-07-29T12:02:12;5.37;;;2.00;;
1563;SDS011;775;51.958;7.976;2022-07-29T12:04:47;5.40;;;1.77;;
1563;SDS011;775;51.958;7.976;2022-07-29T12:07:14;3.80;;;1.60;;
1563;SDS011;775;51.958;7.976;2022-07-29T12:09:48;4.73;;;1.67;;
1563;SDS011;775;51.958;7.976;2022-07-29T12:12:16;4.67;;;1.93;;
1563;SDS011;775;51.958;7.976;2022-07-29T12:14:43;4.83;;;2.00;;
1563;SDS011;775;51.958;7.976;2022-07-29T12:17:26;7.23;;;2.40;;
1563;SDS011;775;51.958;7.976;2022-07-29T12:19:53;8.67;;;4.33;;
1563;SDS011;775;51.958;7.976;2022-07-29T12:22:26;5.70;;;2.33;;
1563;SDS011;775;51.958;7.976;2022-07-29T12:24:54;4.13;;;1.60;;
1563;SDS011;775;51.958;7.976;2022-07-29T12:27:21;5.67;;;2.17;;
1563;SDS011;775;51.958;7.976;2022-07-29T12:29:55;6.00;;;2.40;;
1563;SDS011;775;51.958;7.976;2022-07-29T12:32:22;9.30;;;1.90;;
1563;SDS011;775;51.958;7.976;2022-07-29T12:34:51;4.20;;;1.87;;
1563;SDS011;775;51.958;7.976;2022-07-29T12:37:18;9.53;;;2.00;;
1563;SDS011;775;51.958;7.976;2022-07-29T12:39:46;5.50;;;1.70;;
1563;SDS011;775;51.958;7.976;2022-07-29T12:42:14;9.00;;;1.93;;
1563;SDS011;775;51.958;7.976;2022-07-29T12:44:43;6.27;;;1.80;;
1563;SDS011;775;51.958;7.976;2022-07-29T12:47:11;5.90;;;1.67;;
1563;SDS011;775;51.958;7.976;2022-07-29T12:49:38;10.97;;;2.40;;
1563;SDS011;775;51.958;7.976;2022-07-29T12:54:49;4.47;;;1.90;;
1563;SDS011;775;51.958;7.976;2022-07-29T12:57:16;5.93;;;2.10;;
1563;SDS011;775;51.958;7.976;2022-07-29T12:59:44;5.43;;;2.93;;
1563;SDS011;775;51.958;7.976;2022-07-29T13:02:20;6.00;;;1.80;;
1563;SDS011;775;51.958;7.976;2022-07-29T13:04:54;5.40;;;2.27;;
1563;SDS011;775;51.958;7.976;2022-07-29T13:07:23;7.60;;;2.70;;
1563;SDS011;775;51.958;7.976;2022-07-29T13:09:53;6.47;;;1.93;;
1563;SDS011;775;51.958;7.976;2022-07-29T13:12:20;4.90;;;2.07;;
1563;SDS011;775;51.958;7.976;2022-07-29T13:14:48;4.63;;;2.00;;
1563;SDS011;775;51.958;7.976;2022-07-29T13:17:16;6.97;;;2.40;;
1563;SDS011;775;51.958;7.976;2022-07-29T13:19:44;5.13;;;1.87;;
1563;SDS011;775;51.958;7.976;2022-07-29T13:22:12;4.90;;;1.80;;
1563;SDS011;775;51.958;7.976;2022-07-29T13:24:49;5.07;;;2.20;;
1563;SDS011;775;51.958;7.976;2022-07-29T13:27:18;8.93;;;4.57;;
1563;SDS011;775;51.958;7.976;2022-07-29T13:29:45;5.47;;;2.07;;
1563;SDS011;775;51.958;7.976;2022-07-29T13:32:14;8.93;;;2.53;;
1563;SDS011;775;51.958;7.976;2022-07-29T13:34:41;5.30;;;1.77;;
1563;SDS011;775;51.958;7.976;2022-07-29T13:37:09;5.70;;;2.23;;
1563;SDS011;775;51.958;7.976;2022-07-29T13:39:36;9.67;;;2.53;;
1563;SDS011;775;51.958;7.976;2022-07-29T13:42:03;5.80;;;2.17;;
1563;SDS011;775;51.958;7.976;2022-07-29T13:44:32;6.53;;;2.47;;
1563;SDS011;775;51.958;7.976;2022-07-29T13:46:59;6.83;;;2.17;;
1563;SDS011;775;51.958;7.976;2022-07-29T13:49:27;11.23;;;2.70;;
1563;SDS011;775;51.958;7.976;2022-07-29T13:51:54;5.70;;;2.40;;
1563;SDS011;775;51.958;7.976;2022-07-29T13:54:21;6.53;;;2.77;;
1563;SDS011;775;51.958;7.976;2022-07-29T13:56:49;4.80;;;2.17;;
1563;SDS011;775;51.958;7.976;2022-07-29T13:59:16;10.50;;;2.07;;
1563;SDS011;775;51.958;7.976;2022-07-29T14:01:45;5.83;;;2.50;;
1563;SDS011;775;51.958;7.976;2022-07-29T14:04:12;6.23;;;2.27;;
1563;SDS011;775;51.958;7.976;2022-07-29T14:06:40;6.10;;;2.40;;
1563;SDS011;775;51.958;7.976;2022-07-29T14:09:07;5.90;;;2.10;;
1563;SDS011;775;51.958;7.976;2022-07-29T14:11:34;4.80;;;2.33;;
1563;SDS011;775;51.958;7.976;2022-07-29T14:14:03;7.67;;;3.13;;
1563;SDS011;775;51.958;7.976;2022-07-29T14:16:30;8.67;;;2.77;;
1563;SDS011;775;51.958;7.976;2022-07-29T14:18:59;9.87;;;2.73;;
1563;SDS011;775;51.958;7.976;2022-07-29T14:21:26;8.47;;;3.50;;
1563;SDS011;775;51.958;7.976;2022-07-29T14:23:53;7.50;;;2.50;;
1563;SDS011;775;51.958;7.976;2022-07-29T14:26:20;8.30;;;3.57;;
1563;SDS011;775;51.958;7.976;2022-07-29T14:28:48;5.80;;;2.83;;
1563;SDS011;775;51.958;7.976;2022-07-29T14:31:15;7.20;;;3.07;;
1563;SDS011;775;51.958;7.976;2022-07-29T14:33:42;7.50;;;3.60;;
1563;SDS011;775;51.958;7.976;2022-07-29T14:36:10;8.83;;;3.03;;
1563;SDS011;775;51.958;7.976;2022-07-29T14:38:38;7.33;;;3.03;;
1563;SDS011;775;51.958;7.976;2022-07-29T14:41:05;5.57;;;2.83;;
1563;SDS011;775;51.958;7.976;2022-07-29T14:43:32;7.23;;;3.30;;
1563;SDS011;775;51.958;7.976;2022-07-29T14:46:00;6.67;;;3.30;;
1563;SDS011;775;51.958;7.976;2022-07-29T14:48:27;9.10;;;3.70;;
1563;SDS011;775;51.958;7.976;2022-07-29T14:50:54;8.17;;;3.63;;
1563;SDS011;775;51.958;7.976;2022-07-29T14:53:23;6.33;;;3.97;;
1563;SDS011;775;51.958;7.976;2022-07-29T14:55:50;10.50;;;4.17;;
1563;SDS011;775;51.958;7.976;2022-07-29T14:58:18;8.40;;;4.00;;
1563;SDS011;775;51.958;7.976;2022-07-29T15:00:47;8.80;;;3.73;;
1563;SDS011;775;51.958;7.976;2022-07-29T15:03:14;10.40;;;5.33;;
1563;SDS011;775;51.958;7.976;2022-07-29T15:05:41;8.07;;;3.73;;
1563;SDS011;775;51.958;7.976;2022-07-29T15:08:09;11.10;;;3.90;;
1563;SDS011;775;51.958;7.976;2022-07-29T15:10:37;9.43;;;4.00;;
1563;SDS011;775;51.958;7.976;2022-07-29T15:13:04;5.73;;;3.57;;
1563;SDS011;775;51.958;7.976;2022-07-29T15:15:32;9.87;;;3.97;;
1563;SDS011;775;51.958;7.976;2022-07-29T15:17:59;9.00;;;4.53;;
1563;SDS011;775;51.958;7.976;2022-07-29T15:20:26;7.27;;;3.50;;
1563;SDS011;775;51.958;7.976;2022-07-29T15:22:53;10.37;;;3.87;;
1563;SDS011;775;51.958;7.976;2022-07-29T15:25:21;8.33;;;4.33;;
1563;SDS011;775;51.958;7.976;2022-07-29T15:27:50;9.37;;;4.30;;
1563;SDS011;775;51.958;7.976;2022-07-29T15:30:17;7.73;;;3.83;;
1563;SDS011;775;51.958;7.976;2022-07-29T15:32:44;6.77;;;3.57;;
1563;SDS011;775;51.958;7.976;2022-07-29T15:35:11;10.43;;;3.33;;
1563;SDS011;775;51.958;7.976;2022-07-29T15:37:39;6.70;;;3.40;;
1563;SDS011;775;51.958;7.976;2022-07-29T15:40:06;8.00;;;3.77;;
1563;SDS011;775;51.958;7.976;2022-07-29T15:42:34;6.60;;;3.40;;
1563;SDS011;775;51.958;7.976;2022-07-29T15:45:03;8.30;;;3.40;;
1563;SDS011;775;51.958;7.976;2022-07-29T15:47:31;9.47;;;3.70;;
1563;SDS011;775;51.958;7.976;2022-07-29T15:49:58;8.40;;;3.63;;
1563;SDS011;775;51.958;7.976;2022-07-29T15:52:25;7.80;;;4.37;;
1563;SDS011;775;51.958;7.976;2022-07-29T15:54:53;7.87;;;3.50;;
1563;SDS011;775;51.958;7.976;2022-07-29T15:57:21;6.50;;;3.73;;
1563;SDS011;775;51.958;7.976;2022-07-29T15:59:49;7.97;;;3.57;;
1563;SDS011;775;51.958;7.976;2022-07-29T16:02:17;6.57;;;3.37;;